sensor_id;sensor_type;location;lat;lon;timestamp;P1;durP1;ratioP1;P2;durP2;ratioP2
20177;SDS011;10248;51.218;20.866;2023-03-30T00:02:03;1.38;;;1.38;;
20177;SDS011;10248;51.218;20.866;2023-03-30T00:04:30;1.40;;;1.40;;
20177;SDS011;10248;51.218;20.866;2023-03-30T00:07:00;1.40;;;1.40;;
20177;SDS011;10248;51.218;20.866;2023-03-30T00:09:27;1.23;;;1.23;;
20177;SDS011;10248;51.218;20.866;2023-03-30T00:11:57;1.30;;;1.30;;
20177;SDS011;10248;51.218;20.866;2023-03-30T00:14:29;1.40;;;1.40;;
20177;SDS011;10248;51.218;20.866;2023-03-30T00:16:57;1.50;;;1.50;;
20177;SDS011;10248;51.218;20.866;2023-03-30T00:19:25;1.40;;;1.40;;
20177;SDS011;10248;51.218;20.866;2023-03-30T00:21:52;1.40;;;1.40;;
20177;SDS011;10248;51.218;20.866;2023-03-30T00:24:20;1.33;;;1.33;;
20177;SDS011;10248;51.218;20.866;2023-03-30T00:26:48;1.30;;;1.30;;
20177;SDS011;10248;51.218;20.866;2023-03-30T00:29:16;1.30;;;1.30;;
20177;SDS011;10248;51.218;20.866;2023-03-30T00:31:45;1.30;;;1.30;;
20177;SDS011;10248;51.218;20.866;2023-03-30T00:34:12;1.30;;;1.30;;
20177;SDS011;10248;51.218;20.866;2023-03-30T00:36:40;1.20;;;1.20;;
20177;SDS011;10248;51.218;20.866;2023-03-30T00:39:08;1.45;;;1.45;;
20177;SDS011;10248;51.218;20.866;2023-03-30T00:41:36;1.40;;;1.40;;
20177;SDS011;10248;51.218;20.866;2023-03-30T00:44:04;1.40;;;1.40;;
20177;SDS011;10248;51.218;20.866;2023-03-30T00:46:33;1.30;;;1.30;;
20177;SDS011;10248;51.218;20.866;2023-03-30T00:49:03;1.30;;;1.30;;
20177;SDS011;10248;51.218;20.866;2023-03-30T00:51:34;1.40;;;1.40;;
20177;SDS011;10248;51.218;20.866;2023-03-30T00:54:05;1.40;;;1.40;;
20177;SDS011;10248;51.218;20.866;2023-03-30T00:56:34;1.30;;;1.30;;
20177;SDS011;10248;51.218;20.866;2023-03-30T00:59:02;1.50;;;1.50;;
20177;SDS011;10248;51.218;20.866;2023-03-30T01:01:30;1.40;;;1.40;;
20177;SDS011;10248;51.218;20.866;2023-03-30T01:04:06;1.48;;;1.48;;
20177;SDS011;10248;51.218;20.866;2023-03-30T01:06:35;1.30;;;1.30;;
20177;SDS011;10248;51.218;20.866;2023-03-30T01:09:06;1.30;;;1.30;;
20177;SDS011;10248;51.218;20.866;2023-03-30T01:11:34;1.30;;;1.30;;
20177;SDS011;10248;51.218;20.866;2023-03-30T01:14:02;1.40;;;1.40;;
20177;SDS011;10248;51.218;20.866;2023-03-30T01:16:34;1.40;;;1.40;;
20177;SDS011;10248;51.218;20.866;2023-03-30T01:19:14;1.33;;;1.33;;
20177;SDS011;10248;51.218;20.866;2023-03-30T01:21:56;1.45;;;1.45;;
20177;SDS011;10248;51.218;20.866;2023-03-30T01:27:46;1.50;;;1.50;;
20177;SDS011;10248;51.218;20.866;2023-03-30T01:30:28;1.27;;;1.27;;
20177;SDS011;10248;51.218;20.866;2023-03-30T01:33:07;1.30;;;1.30;;
20177;SDS011;10248;51.218;20.866;2023-03-30T01:39:08;1.40;;;1.40;;
20177;SDS011;10248;51.218;20.866;2023-03-30T01:41:42;1.33;;;1.33;;
20177;SDS011;10248;51.218;20.866;2023-03-30T01:44:15;1.40;;;1.40;;
20177;SDS011;10248;51.218;20.866;2023-03-30T01:46:46;1.40;;;1.40;;
20177;SDS011;10248;51.218;20.866;2023-03-30T01:49:19;1.15;;;1.15;;
20177;SDS011;10248;51.218;20.866;2023-03-30T01:51:54;1.40;;;1.40;;
20177;SDS011;10248;51.218;20.866;2023-03-30T01:54:29;1.60;;;1.60;;
20177;SDS011;10248;51.218;20.866;2023-03-30T01:56:58;1.30;;;1.30;;
20177;SDS011;10248;51.218;20.866;2023-03-30T01:59:31;1.33;;;1.33;;
20177;SDS011;10248;51.218;20.866;2023-03-30T02:02:02;1.40;;;1.40;;
20177;SDS011;10248;51.218;20.866;2023-03-30T02:04:33;1.40;;;1.40;;
20177;SDS011;10248;51.218;20.866;2023-03-30T02:07:05;1.40;;;1.40;;
20177;SDS011;10248;51.218;20.866;2023-03-30T02:09:37;1.30;;;1.30;;
20177;SDS011;10248;51.218;20.866;2023-03-30T02:12:05;1.50;;;1.50;;
20177;SDS011;10248;51.218;20.866;2023-03-30T02:14:35;1.40;;;1.40;;
20177;SDS011;10248;51.218;20.866;2023-03-30T02:17:06;1.50;;;1.50;;
20177;SDS011;10248;51.218;20.866;2023-03-30T02:19:36;1.40;;;1.40;;
20177;SDS011;10248;51.218;20.866;2023-03-30T02:22:04;1.50;;;1.50;;
20177;SDS011;10248;51.218;20.866;2023-03-30T02:24:33;1.35;;;1.35;;
20177;SDS011;10248;51.218;20.866;2023-03-30T02:27:03;1.50;;;1.50;;
20177;SDS011;10248;51.218;20.866;2023-03-30T02:29:31;1.50;;;1.50;;
20177;SDS011;10248;51.218;20.866;2023-03-30T02:32:00;1.35;;;1.35;;
20177;SDS011;10248;51.218;20.866;2023-03-30T02:34:32;1.30;;;1.30;;
20177;SDS011;10248;51.218;20.866;2023-03-30T16:31:51;1.20;;;1.20;;
20177;SDS011;10248;51.218;20.866;2023-03-30T16:34:19;1.00;;;1.00;;
20177;SDS011;10248;51.218;20.866;2023-03-30T16:36:48;0.98;;;0.98;;
20177;SDS011;10248;51.218;20.866;2023-03-30T16:39:16;1.20;;;1.20;;
20177;SDS011;10248;51.218;20.866;2023-03-30T16:41:44;1.10;;;1.10;;
20177;SDS011;10248;51.218;20.866;2023-03-30T16:44:11;1.00;;;1.00;;
20177;SDS011;10248;51.218;20.866;2023-03-30T16:46:39;1.20;;;1.20;;
20177;SDS011;10248;51.218;20.866;2023-03-30T16:49:11;1.20;;;1.20;;
20177;SDS011;10248;51.218;20.866;2023-03-30T16:51:38;1.10;;;1.10;;
20177;SDS011;10248;51.218;20.866;2023-03-30T16:54:06;1.00;;;1.00;;
20177;SDS011;10248;51.218;20.866;2023-03-30T16:56:52;1.08;;;1.08;;
20177;SDS011;10248;51.218;20.866;2023-03-30T16:59:20;1.00;;;1.00;;
20177;SDS011;10248;51.218;20.866;2023-03-30T17:01:49;1.25;;;1.25;;
20177;SDS011;10248;51.218;20.866;2023-03-30T17:04:18;1.13;;;1.13;;
20177;SDS011;10248;51.218;20.866;2023-03-30T17:06:45;1.10;;;1.10;;
20177;SDS011;10248;51.218;20.866;2023-03-30T17:09:14;1.10;;;1.10;;
20177;SDS011;10248;51.218;20.866;2023-03-30T17:11:42;1.10;;;1.10;;
20177;SDS011;10248;51.218;20.866;2023-03-30T17:14:10;1.00;;;1.00;;
20177;SDS011;10248;51.218;20.866;2023-03-30T17:16:38;1.20;;;1.20;;
20177;SDS011;10248;51.218;20.866;2023-03-30T17:19:08;1.00;;;1.00;;
20177;SDS011;10248;51.218;20.866;2023-03-30T17:21:38;1.10;;;1.10;;
20177;SDS011;10248;51.218;20.866;2023-03-30T17:24:08;1.08;;;1.08;;
20177;SDS011;10248;51.218;20.866;2023-03-30T17:26:37;1.02;;;1.02;;
20177;SDS011;10248;51.218;20.866;2023-03-30T17:29:05;1.17;;;1.17;;
20177;SDS011;10248;51.218;20.866;2023-03-30T17:31:33;1.10;;;1.10;;
20177;SDS011;10248;51.218;20.866;2023-03-30T17:34:01;1.00;;;1.00;;
20177;SDS011;10248;51.218;20.866;2023-03-30T17:36:29;1.17;;;1.17;;
20177;SDS011;10248;51.218;20.866;2023-03-30T17:38:58;1.00;;;1.00;;
20177;SDS011;10248;51.218;20.866;2023-03-30T17:41:29;1.10;;;1.10;;
20177;SDS011;10248;51.218;20.866;2023-03-30T17:43:59;1.10;;;1.10;;
20177;SDS011;10248;51.218;20.866;2023-03-30T17:46:26;1.10;;;1.10;;
20177;SDS011;10248;51.218;20.866;2023-03-30T17:48:54;1.20;;;1.20;;
20177;SDS011;10248;51.218;20.866;2023-03-30T17:51:23;1.00;;;1.00;;
20177;SDS011;10248;51.218;20.866;2023-03-30T17:53:50;1.10;;;1.10;;
20177;SDS011;10248;51.218;20.866;2023-03-30T17:56:19;1.10;;;1.10;;
20177;SDS011;10248;51.218;20.866;2023-03-30T17:58:47;1.10;;;1.10;;
20177;SDS011;10248;51.218;20.866;2023-03-30T18:01:15;0.98;;;0.98;;
20177;SDS011;10248;51.218;20.866;2023-03-30T18:03:42;1.20;;;1.20;;
20177;SDS011;10248;51.218;20.866;2023-03-30T18:06:10;0.98;;;0.98;;
20177;SDS011;10248;51.218;20.866;2023-03-30T18:08:38;1.10;;;1.10;;
20177;SDS011;10248;51.218;20.866;2023-03-30T18:11:08;1.20;;;1.20;;
20177;SDS011;10248;51.218;20.866;2023-03-30T18:13:37;1.20;;;1.20;;
20177;SDS011;10248;51.218;20.866;2023-03-30T18:16:04;1.10;;;1.10;;
20177;SDS011;10248;51.218;20.866;2023-03-30T18:18:32;1.00;;;1.00;;
20177;SDS011;10248;51.218;20.866;2023-03-30T18:21:00;0.98;;;0.98;;
20177;SDS011;10248;51.218;20.866;2023-03-30T18:23:30;1.10;;;1.10;;
20177;SDS011;10248;51.218;20.866;2023-03-30T18:25:58;1.10;;;1.10;;
20177;SDS011;10248;51.218;20.866;2023-03-30T18:28:27;1.10;;;1.10;;
20177;SDS011;10248;51.218;20.866;2023-03-30T18:30:56;1.10;;;1.10;;
20177;SDS011;10248;51.218;20.866;2023-03-30T18:33:25;1.00;;;1.00;;
20177;SDS011;10248;51.218;20.866;2023-03-30T18:35:53;1.00;;;1.00;;
20177;SDS011;10248;51.218;20.866;2023-03-30T18:38:22;1.10;;;1.10;;
20177;SDS011;10248;51.218;20.866;2023-03-30T18:40:51;1.00;;;1.00;;
20177;SDS011;10248;51.218;20.866;2023-03-30T18:43:22;1.00;;;1.00;;
20177;SDS011;10248;51.218;20.866;2023-03-30T18:45:52;1.13;;;1.13;;
20177;SDS011;10248;51.218;20.866;2023-03-30T18:48:26;1.13;;;1.13;;
20177;SDS011;10248;51.218;20.866;2023-03-30T18:50:54;1.20;;;1.20;;
20177;SDS011;10248;51.218;20.866;2023-03-30T18:53:22;1.10;;;1.10;;
20177;SDS011;10248;51.218;20.866;2023-03-30T18:55:51;1.10;;;1.10;;
20177;SDS011;10248;51.218;20.866;2023-03-30T18:58:19;1.25;;;1.25;;
20177;SDS011;10248;51.218;20.866;2023-03-30T19:00:47;1.10;;;1.10;;
20177;SDS011;10248;51.218;20.866;2023-03-30T19:03:15;1.15;;;1.15;;
20177;SDS011;10248;51.218;20.866;2023-03-30T19:05:45;1.10;;;1.10;;
20177;SDS011;10248;51.218;20.866;2023-03-30T19:08:13;1.10;;;1.10;;
20177;SDS011;10248;51.218;20.866;2023-03-30T19:10:41;1.20;;;1.20;;
20177;SDS011;10248;51.218;20.866;2023-03-30T19:13:10;1.20;;;1.20;;
20177;SDS011;10248;51.218;20.866;2023-03-30T19:15:38;1.20;;;1.20;;
20177;SDS011;10248;51.218;20.866;2023-03-30T19:18:06;1.10;;;1.10;;
20177;SDS011;10248;51.218;20.866;2023-03-30T19:20:34;1.10;;;1.10;;
20177;SDS011;10248;51.218;20.866;2023-03-30T19:23:04;1.20;;;1.20;;
20177;SDS011;10248;51.218;20.866;2023-03-30T19:25:32;1.10;;;1.10;;
20177;SDS011;10248;51.218;20.866;2023-03-30T19:28:00;1.20;;;1.20;;
20177;SDS011;10248;51.218;20.866;2023-03-30T19:30:29;1.10;;;1.10;;
20177;SDS011;10248;51.218;20.866;2023-03-30T19:33:00;1.20;;;1.20;;
20177;SDS011;10248;51.218;20.866;2023-03-30T19:35:28;1.20;;;1.20;;
20177;SDS011;10248;51.218;20.866;2023-03-30T19:37:56;1.10;;;1.10;;
20177;SDS011;10248;51.218;20.866;2023-03-30T19:40:25;1.20;;;1.20;;
20177;SDS011;10248;51.218;20.866;2023-03-30T19:42:52;1.15;;;1.15;;
20177;SDS011;10248;51.218;20.866;2023-03-30T19:45:20;1.20;;;1.20;;
20177;SDS011;10248;51.218;20.866;2023-03-30T19:47:49;1.02;;;1.02;;
20177;SDS011;10248;51.218;20.866;2023-03-30T19:50:18;1.05;;;1.05;;
20177;SDS011;10248;51.218;20.866;2023-03-30T19:52:45;1.13;;;1.13;;
20177;SDS011;10248;51.218;20.866;2023-03-30T19:55:15;1.10;;;1.10;;
20177;SDS011;10248;51.218;20.866;2023-03-30T19:58:12;1.10;;;1.10;;
20177;SDS011;10248;51.218;20.866;2023-03-30T20:00:40;1.10;;;1.10;;
20177;SDS011;10248;51.218;20.866;2023-03-30T20:03:09;1.20;;;1.20;;
20177;SDS011;10248;51.218;20.866;2023-03-30T20:05:37;1.20;;;1.20;;
20177;SDS011;10248;51.218;20.866;2023-03-30T20:08:05;1.00;;;1.00;;
20177;SDS011;10248;51.218;20.866;2023-03-30T20:10:48;1.10;;;1.10;;
20177;SDS011;10248;51.218;20.866;2023-03-30T20:13:17;1.10;;;1.10;;
20177;SDS011;10248;51.218;20.866;2023-03-30T20:15:47;1.00;;;1.00;;
20177;SDS011;10248;51.218;20.866;2023-03-30T20:18:14;1.10;;;1.10;;
20177;SDS011;10248;51.218;20.866;2023-03-30T20:20:43;1.15;;;1.15;;
20177;SDS011;10248;51.218;20.866;2023-03-30T20:23:11;1.10;;;1.10;;
20177;SDS011;10248;51.218;20.866;2023-03-30T20:25:42;1.20;;;1.20;;
20177;SDS011;10248;51.218;20.866;2023-03-30T20:28:11;1.10;;;1.10;;
20177;SDS011;10248;51.218;20.866;2023-03-30T20:30:40;1.20;;;1.20;;
20177;SDS011;10248;51.218;20.866;2023-03-30T20:33:08;1.00;;;1.00;;
20177;SDS011;10248;51.218;20.866;2023-03-30T20:35:36;0.95;;;0.95;;
20177;SDS011;10248;51.218;20.866;2023-03-30T20:38:04;1.17;;;1.17;;
20177;SDS011;10248;51.218;20.866;2023-03-30T20:40:33;1.25;;;1.25;;
20177;SDS011;10248;51.218;20.866;2023-03-30T20:43:01;1.10;;;1.10;;
20177;SDS011;10248;51.218;20.866;2023-03-30T20:45:30;1.17;;;1.17;;
20177;SDS011;10248;51.218;20.866;2023-03-30T20:47:59;1.10;;;1.10;;
20177;SDS011;10248;51.218;20.866;2023-03-30T20:50:47;1.13;;;1.13;;
20177;SDS011;10248;51.218;20.866;2023-03-30T20:53:15;1.20;;;1.20;;
20177;SDS011;10248;51.218;20.866;2023-03-30T20:55:42;1.10;;;1.10;;
20177;SDS011;10248;51.218;20.866;2023-03-30T20:58:10;1.20;;;1.20;;
20177;SDS011;10248;51.218;20.866;2023-03-30T21:00:38;1.10;;;1.10;;
20177;SDS011;10248;51.218;20.866;2023-03-30T21:03:07;1.10;;;1.10;;
20177;SDS011;10248;51.218;20.866;2023-03-30T21:05:34;1.17;;;1.17;;
20177;SDS011;10248;51.218;20.866;2023-03-30T21:08:02;1.10;;;1.10;;
20177;SDS011;10248;51.218;20.866;2023-03-30T21:10:32;1.10;;;1.10;;
20177;SDS011;10248;51.218;20.866;2023-03-30T21:13:00;1.10;;;1.10;;
20177;SDS011;10248;51.218;20.866;2023-03-30T21:15:28;1.20;;;1.20;;
20177;SDS011;10248;51.218;20.866;2023-03-30T21:17:55;1.10;;;1.10;;
20177;SDS011;10248;51.218;20.866;2023-03-30T21:20:24;1.20;;;1.20;;
20177;SDS011;10248;51.218;20.866;2023-03-30T21:22:51;1.20;;;1.20;;
20177;SDS011;10248;51.218;20.866;2023-03-30T21:25:19;1.00;;;1.00;;
20177;SDS011;10248;51.218;20.866;2023-03-30T21:27:46;1.13;;;1.13;;
20177;SDS011;10248;51.218;20.866;2023-03-30T21:30:14;1.20;;;1.20;;
20177;SDS011;10248;51.218;20.866;2023-03-30T21:32:42;1.10;;;1.10;;
20177;SDS011;10248;51.218;20.866;2023-03-30T21:35:09;1.20;;;1.20;;
20177;SDS011;10248;51.218;20.866;2023-03-30T21:37:38;1.10;;;1.10;;
20177;SDS011;10248;51.218;20.866;2023-03-30T21:40:06;1.10;;;1.10;;
20177;SDS011;10248;51.218;20.866;2023-03-30T21:42:34;1.00;;;1.00;;
20177;SDS011;10248;51.218;20.866;2023-03-30T21:45:02;1.20;;;1.20;;
20177;SDS011;10248;51.218;20.866;2023-03-30T21:47:31;1.10;;;1.10;;
20177;SDS011;10248;51.218;20.866;2023-03-30T21:49:58;1.10;;;1.10;;
20177;SDS011;10248;51.218;20.866;2023-03-30T21:52:26;1.27;;;1.27;;
20177;SDS011;10248;51.218;20.866;2023-03-30T21:54:55;1.00;;;1.00;;
20177;SDS011;10248;51.218;20.866;2023-03-30T21:57:23;1.20;;;1.20;;
20177;SDS011;10248;51.218;20.866;2023-03-30T21:59:51;1.10;;;1.10;;
20177;SDS011;10248;51.218;20.866;2023-03-30T22:02:18;1.10;;;1.10;;
20177;SDS011;10248;51.218;20.866;2023-03-30T22:04:46;1.00;;;1.00;;
20177;SDS011;10248;51.218;20.866;2023-03-30T22:07:13;1.20;;;1.20;;
20177;SDS011;10248;51.218;20.866;2023-03-30T22:09:41;1.20;;;1.20;;
20177;SDS011;10248;51.218;20.866;2023-03-30T22:12:10;0.98;;;0.98;;
20177;SDS011;10248;51.218;20.866;2023-03-30T22:14:37;1.20;;;1.20;;
20177;SDS011;10248;51.218;20.866;2023-03-30T22:17:05;0.95;;;0.95;;
20177;SDS011;10248;51.218;20.866;2023-03-30T22:19:36;1.20;;;1.20;;
20177;SDS011;10248;51.218;20.866;2023-03-30T22:22:04;1.05;;;1.05;;
20177;SDS011;10248;51.218;20.866;2023-03-30T22:24:31;1.20;;;1.20;;
20177;SDS011;10248;51.218;20.866;2023-03-30T22:26:59;1.20;;;1.20;;
20177;SDS011;10248;51.218;20.866;2023-03-30T22:29:28;1.10;;;1.10;;
20177;SDS011;10248;51.218;20.866;2023-03-30T22:31:55;1.23;;;1.23;;
20177;SDS011;10248;51.218;20.866;2023-03-30T22:34:23;1.15;;;1.15;;
20177;SDS011;10248;51.218;20.866;2023-03-30T22:36:50;1.17;;;1.17;;
20177;SDS011;10248;51.218;20.866;2023-03-30T22:39:19;1.23;;;1.23;;
20177;SDS011;10248;51.218;20.866;2023-03-30T22:41:47;1.20;;;1.20;;
20177;SDS011;10248;51.218;20.866;2023-03-30T22:44:14;1.20;;;1.20;;
20177;SDS011;10248;51.218;20.866;2023-03-30T22:46:44;1.17;;;1.17;;
20177;SDS011;10248;51.218;20.866;2023-03-30T22:49:12;1.10;;;1.10;;
20177;SDS011;10248;51.218;20.866;2023-03-30T22:51:40;1.13;;;1.13;;
20177;SDS011;10248;51.218;20.866;2023-03-30T22:54:18;1.20;;;1.20;;
20177;SDS011;10248;51.218;20.866;2023-03-30T22:56:45;1.20;;;1.20;;
20177;SDS011;10248;51.218;20.866;2023-03-30T22:59:14;1.25;;;1.25;;
20177;SDS011;10248;51.218;20.866;2023-03-30T23:01:41;1.10;;;1.10;;
20177;SDS011;10248;51.218;20.866;2023-03-30T23:04:10;1.10;;;1.10;;
20177;SDS011;10248;51.218;20.866;2023-03-30T23:06:38;1.20;;;1.20;;
20177;SDS011;10248;51.218;20.866;2023-03-30T23:09:05;1.20;;;1.20;;
20177;SDS011;10248;51.218;20.866;2023-03-30T23:11:33;1.17;;;1.17;;
20177;SDS011;10248;51.218;20.866;2023-03-30T23:14:00;1.10;;;1.10;;
20177;SDS011;10248;51.218;20.866;2023-03-30T23:16:30;1.10;;;1.10;;
20177;SDS011;10248;51.218;20.866;2023-03-30T23:19:00;1.00;;;1.00;;
20177;SDS011;10248;51.218;20.866;2023-03-30T23:21:30;1.10;;;1.10;;
20177;SDS011;10248;51.218;20.866;2023-03-30T23:23:59;1.10;;;1.10;;
20177;SDS011;10248;51.218;20.866;2023-03-30T23:26:28;1.08;;;1.08;;
20177;SDS011;10248;51.218;20.866;2023-03-30T23:28:55;1.23;;;1.23;;
20177;SDS011;10248;51.218;20.866;2023-03-30T23:31:23;1.10;;;1.10;;
20177;SDS011;10248;51.218;20.866;2023-03-30T23:33:52;1.10;;;1.10;;
20177;SDS011;10248;51.218;20.866;2023-03-30T23:36:20;1.10;;;1.10;;
20177;SDS011;10248;51.218;20.866;2023-03-30T23:38:50;1.10;;;1.10;;
20177;SDS011;10248;51.218;20.866;2023-03-30T23:41:19;1.10;;;1.10;;
20177;SDS011;10248;51.218;20.866;2023-03-30T23:43:48;1.20;;;1.20;;
20177;SDS011;10248;51.218;20.866;2023-03-30T23:46:17;1.10;;;1.10;;
20177;SDS011;10248;51.218;20.866;2023-03-30T23:48:44;1.00;;;1.00;;
20177;SDS011;10248;51.218;20.866;2023-03-30T23:51:12;1.00;;;1.00;;
20177;SDS011;10248;51.218;20.866;2023-03-30T23:53:39;1.10;;;1.10;;
20177;SDS011;10248;51.218;20.866;2023-03-30T23:56:09;1.20;;;1.20;;
20177;SDS011;10248;51.218;20.866;2023-03-30T23:58:38;1.20;;;1.20;;
